Orbital elements of COSMOS 2251 DEB
| Launched | 15 June 1993 |
| Flight ended | – |
| Launch site | Plesetsk Missile and Space Complex, Russia |
| Owner | Commonwealth of Independent States (former USSR) |
| NORAD ID | 36367 |
| Date fetched |
Epoch osculation |
Inc. [°] |
Ecc. | RA asc node [hr] |
Arg Peri. [°] |
Mean anom [°] |
Mean motion [rev/day] |
Abs. mag |
| Date fetched |
Epoch osculation |
Inc. [°] |
Ecc. | RA asc node [hr] |
Arg Peri. [°] |
Mean anom [°] |
Mean motion [rev/day] |
Abs. mag |
| 2026 May 08 17:57 | 2026 May 04 07:58:27 | 74.1016 | 0.02623 | 23.3851 | 30.1978 | 331.3975 | 13.86948 | – |
| 2026 May 07 17:58 | 2026 May 04 07:58:27 | 74.1016 | 0.02623 | 23.3851 | 30.1978 | 331.3975 | 13.86948 | – |
| 2026 May 06 17:57 | 2026 May 04 07:58:27 | 74.1016 | 0.02623 | 23.3851 | 30.1978 | 331.3975 | 13.86948 | – |
| 2026 May 05 17:57 | 2026 May 04 07:58:27 | 74.1016 | 0.02623 | 23.3851 | 30.1978 | 331.3975 | 13.86948 | – |
| 2026 May 04 17:57 | 2026 Apr 30 08:45:57 | 74.1017 | 0.02622 | 23.8316 | 37.7519 | 331.3975 | 13.86948 | – |
| 2026 May 03 17:57 | 2026 Apr 30 08:45:57 | 74.1017 | 0.02622 | 23.8316 | 37.7519 | 331.3975 | 13.86948 | – |
| 2026 May 02 17:57 | 2026 Apr 30 08:45:57 | 74.1017 | 0.02622 | 23.8316 | 37.7519 | 331.3975 | 13.86948 | – |
| 2026 May 01 17:56 | 2026 Apr 30 08:45:57 | 74.1017 | 0.02622 | 23.8316 | 37.7519 | 331.3975 | 13.86948 | – |
| 2026 Apr 30 17:56 | 2026 Apr 30 08:45:57 | 74.1017 | 0.02622 | 23.8316 | 37.7519 | 331.3975 | 13.86948 | – |
| 2026 Apr 29 17:57 | 2026 Apr 20 23:43:25 | 74.1022 | 0.02615 | 0.8870 | 55.6245 | 331.3975 | 13.86948 | – |
| 2026 Apr 28 17:56 | 2026 Apr 20 23:43:25 | 74.1022 | 0.02615 | 0.8870 | 55.6245 | 331.3975 | 13.86948 | – |
| 2026 Apr 27 17:58 | 2026 Apr 20 23:43:25 | 74.1022 | 0.02615 | 0.8870 | 55.6245 | 331.3975 | 13.86948 | – |
| 2026 Apr 26 17:58 | 2026 Apr 20 23:43:25 | 74.1022 | 0.02615 | 0.8870 | 55.6245 | 331.3975 | 13.86948 | – |
| 2026 Apr 25 17:58 | 2026 Apr 20 23:43:25 | 74.1022 | 0.02615 | 0.8870 | 55.6245 | 331.3975 | 13.86948 | – |
| 2026 Apr 24 17:59 | 2026 Apr 20 23:43:25 | 74.1022 | 0.02615 | 0.8870 | 55.6245 | 331.3975 | 13.86948 | – |
| 2026 Apr 23 17:57 | 2026 Apr 18 11:08:04 | 74.1018 | 0.02608 | 1.1711 | 60.4181 | 331.3975 | 13.86948 | – |
| 2026 Apr 22 17:57 | 2026 Apr 18 11:08:04 | 74.1018 | 0.02608 | 1.1711 | 60.4181 | 331.3975 | 13.86948 | – |
| 2026 Apr 21 17:57 | 2026 Apr 18 11:08:04 | 74.1018 | 0.02608 | 1.1711 | 60.4181 | 331.3975 | 13.86948 | – |
| 2026 Apr 20 17:57 | 2026 Apr 18 11:08:04 | 74.1018 | 0.02608 | 1.1711 | 60.4181 | 331.3975 | 13.86948 | – |
| 2026 Apr 19 17:58 | 2026 Apr 18 11:08:04 | 74.1018 | 0.02608 | 1.1711 | 60.4181 | 331.3975 | 13.86948 | – |
| 2026 Apr 18 17:56 | 2026 Apr 10 12:42:31 | 74.1017 | 0.02599 | 2.0641 | 75.6684 | 331.3975 | 13.86948 | – |
| 2026 Apr 16 17:57 | 2026 Apr 10 12:42:31 | 74.1017 | 0.02599 | 2.0641 | 75.6684 | 331.3975 | 13.86948 | – |
| 2026 Apr 14 17:57 | 2026 Apr 10 12:42:31 | 74.1017 | 0.02599 | 2.0641 | 75.6684 | 331.3975 | 13.86948 | – |
| 2026 Apr 13 17:57 | 2026 Apr 10 12:42:31 | 74.1017 | 0.02599 | 2.0641 | 75.6684 | 331.3975 | 13.86948 | – |
| 2026 Apr 12 17:57 | 2026 Apr 08 01:50:56 | 74.1020 | 0.02596 | 2.3401 | 80.3967 | 331.3975 | 13.86948 | – |
| 2026 Apr 11 17:57 | 2026 Apr 08 01:50:56 | 74.1020 | 0.02596 | 2.3401 | 80.3967 | 331.3975 | 13.86948 | – |